Time;durP1;ratioP1;P1;durP2;ratioP2;P2;SDS_P1;SDS_P2;PMS_P1;PMS_P2;Temp;Humidity;BMP_temperature;BMP_pressure;BME280_temperature;BME280_humidity;BME280_pressure;Samples;Min_cycle;Max_cycle;Signal;HPM_P1;HPM_P2
2021/10/19 00:06:34;;;;;;;16.87;9.33;;;;;;;8.69;58.27;100786.66;31031991;28;20053;-83
2021/10/19 00:21:36;;;;;;;18.10;9.67;;;;;;;8.64;59.05;100784.31;31012016;28;20061;-89
2021/10/19 00:36:38;;;;;;;18.40;9.27;;;;;;;8.60;59.34;100778.13;31003082;28;20045;-82
2021/10/19 00:51:40;;;;;;;18.30;9.23;;;;;;;8.48;60.00;100766.56;31013679;28;20047;-83
2021/10/19 01:06:42;;;;;;;17.47;9.27;;;;;;;8.39;60.16;100763.47;31011873;28;20510;-88
2021/10/19 01:21:50;;;;;;;19.30;9.60;;;;;;;8.37;61.84;100771.19;31019196;28;20046;-83
2021/10/19 01:36:52;;;;;;;16.53;8.93;;;;;;;8.27;61.63;100777.31;31012301;28;20130;-90
2021/10/19 01:51:54;;;;;;;19.57;9.70;;;;;;;8.21;62.40;100770.78;31023921;28;20054;-89
2021/10/19 02:06:55;;;;;;;20.07;9.27;;;;;;;8.13;63.01;100771.91;31037331;28;20510;-89
2021/10/19 02:21:57;;;;;;;18.80;9.80;;;;;;;8.08;63.41;100780.41;31024762;28;20078;-82
2021/10/19 02:36:59;;;;;;;23.67;10.73;;;;;;;7.98;63.56;100781.19;31025643;28;20047;-89
2021/10/19 02:52:01;;;;;;;25.47;10.20;;;;;;;8.03;64.32;100772.69;31020307;28;20418;-88
2021/10/19 03:07:03;;;;;;;22.00;9.93;;;;;;;7.73;65.01;100790.00;31002585;28;20054;-88
2021/10/19 03:22:05;;;;;;;24.10;11.10;;;;;;;7.58;65.51;100796.50;31025261;28;20050;-83
2021/10/19 03:37:07;;;;;;;25.43;12.83;;;;;;;7.47;66.86;100772.16;31027215;28;20050;-89
2021/10/19 03:52:10;;;;;;;21.73;10.60;;;;;;;7.49;67.13;100793.41;31017712;28;20049;-88
2021/10/19 04:07:13;;;;;;;21.23;10.40;;;;;;;7.50;67.37;100794.94;31018014;28;20073;-83
2021/10/19 04:22:15;;;;;;;22.50;11.17;;;;;;;7.36;68.01;100811.06;31013384;28;20050;-83
2021/10/19 04:37:18;;;;;;;21.77;11.37;;;;;;;7.34;68.13;100843.09;30994956;28;20077;-83
2021/10/19 04:52:19;;;;;;;23.03;12.17;;;;;;;7.31;68.48;100822.25;31014933;28;20050;-89
2021/10/19 05:07:21;;;;;;;27.13;11.97;;;;;;;7.27;70.88;100857.34;30999850;28;20046;-85
2021/10/19 05:22:23;;;;;;;24.63;12.17;;;;;;;7.35;70.57;100890.56;31017351;28;20054;-86
2021/10/19 05:37:26;;;;;;;28.17;14.17;;;;;;;7.56;69.66;100896.06;31033939;28;20057;-88
2021/10/19 05:52:28;;;;;;;26.40;12.20;;;;;;;7.76;69.30;100900.06;31019417;28;20046;-84
2021/10/19 06:07:30;;;;;;;25.33;12.40;;;;;;;10.33;62.16;100901.47;31070096;28;20053;-89
2021/10/19 06:22:32;;;;;;;23.60;12.57;;;;;;;10.96;59.74;100904.91;31097446;28;20054;-86
2021/10/19 06:37:34;;;;;;;25.77;13.27;;;;;;;12.27;55.70;100919.03;31052441;28;20061;-84
2021/10/19 06:52:36;;;;;;;29.13;15.27;;;;;;;11.00;59.51;100938.25;31044315;28;20055;-82
2021/10/19 07:07:42;;;;;;;30.93;12.27;;;;;;;9.84;63.41;100954.00;31040958;28;20066;-83
2021/10/19 07:23:17;;;;;;;23.97;12.77;;;;;;;9.91;65.21;100968.31;31060907;28;20109;-91
2021/10/19 07:38:19;;;;;;;20.13;11.50;;;;;;;9.49;65.06;100990.06;31057139;28;20062;-85
2021/10/19 07:53:22;;;;;;;22.80;11.37;;;;;;;9.35;64.91;101006.34;31057955;28;20054;-85
2021/10/19 08:08:24;;;;;;;9.63;5.07;;;;;;;12.90;53.33;100998.28;30996059;28;20055;-90
2021/10/19 08:23:27;;;;;;;8.73;4.93;;;;;;;13.24;48.07;101017.25;31057058;28;20065;-90
2021/10/19 08:38:30;;;;;;;7.37;3.80;;;;;;;13.43;47.17;101040.34;31046754;28;20065;-84
2021/10/19 08:53:41;;;;;;;12.20;5.00;;;;;;;12.58;47.96;101026.75;31082500;28;20030;-92
2021/10/19 09:08:48;;;;;;;5.67;4.20;;;;;;;12.62;48.46;101059.38;31127929;28;20057;-85
2021/10/19 09:23:50;;;;;;;6.67;4.47;;;;;;;14.97;41.89;101023.25;30904723;23;20050;-75
2021/10/19 09:38:53;;;;;;;5.13;2.80;;;;;;;14.02;39.00;101036.94;30775475;28;20055;-73
2021/10/19 09:53:56;;;;;;;8.15;3.58;;;;;;;15.44;36.65;101028.38;30774078;28;20043;-74
2021/10/19 10:08:59;;;;;;;9.70;5.05;;;;;;;15.62;36.00;101024.03;30779360;28;20055;-73
2021/10/19 10:24:03;;;;;;;8.90;5.32;;;;;;;16.09;34.72;101031.00;30741809;28;20053;-74
2021/10/19 10:39:07;;;;;;;14.17;4.70;;;;;;;15.64;33.29;101034.53;30791161;28;20059;-74
2021/10/19 10:54:14;;;;;;;7.57;5.13;;;;;;;14.15;35.21;101040.59;30788567;28;20074;-74
2021/10/19 11:09:16;;;;;;;8.03;5.13;;;;;;;14.10;36.05;101032.91;30808731;28;20055;-74
2021/10/19 11:24:23;;;;;;;10.97;3.77;;;;;;;14.04;36.97;101048.22;30769071;28;20054;-73
2021/10/19 11:39:27;;;;;;;4.87;2.53;;;;;;;17.07;30.22;101051.22;30773869;28;20055;-73
2021/10/19 11:54:31;;;;;;;4.17;2.23;;;;;;;18.94;27.98;101053.34;30771167;28;20059;-74
2021/10/19 12:09:36;;;;;;;4.27;2.60;;;;;;;17.03;28.54;101061.53;30749975;28;20330;-73
2021/10/19 12:24:40;;;;;;;5.18;2.60;;;;;;;14.22;32.21;101073.22;30750590;28;20057;-74
2021/10/19 12:39:47;;;;;;;6.97;2.10;;;;;;;12.77;34.35;101089.94;30750933;28;20134;-79
2021/10/19 12:54:49;;;;;;;4.10;2.10;;;;;;;11.86;35.44;101094.03;30807016;28;20086;-79
2021/10/19 13:09:50;;;;;;;9.33;2.47;;;;;;;11.58;36.72;101103.19;30768249;28;20146;-82
2021/10/19 13:24:53;;;;;;;3.50;2.20;;;;;;;11.39;36.79;101121.97;30741188;28;20499;-80
2021/10/19 13:39:57;;;;;;;6.33;2.73;;;;;;;11.11;37.33;101120.97;30749998;28;20101;-80
2021/10/19 13:54:59;;;;;;;6.80;2.13;;;;;;;10.88;37.40;101137.00;30793165;28;20128;-80
2021/10/19 14:10:01;;;;;;;4.00;2.30;;;;;;;10.74;38.28;101150.66;30803676;28;20133;-79
2021/10/19 14:25:04;;;;;;;7.10;3.13;;;;;;;10.35;39.13;101170.56;30814125;28;20091;-81
2021/10/19 14:40:06;;;;;;;10.77;4.07;;;;;;;10.07;39.76;101186.84;30828084;28;20065;-81
2021/10/19 14:55:08;;;;;;;12.80;6.10;;;;;;;9.78;40.36;101197.66;30831304;28;20133;-81
2021/10/19 15:10:10;;;;;;;31.13;11.63;;;;;;;9.45;41.04;101223.16;30785289;28;20051;-81
2021/10/19 15:25:12;;;;;;;12.67;5.07;;;;;;;9.17;41.24;101245.53;30841058;28;20154;-80
2021/10/19 15:40:15;;;;;;;8.63;3.50;;;;;;;9.01;41.81;101253.16;30781342;28;20047;-80
2021/10/19 15:55:16;;;;;;;7.80;3.40;;;;;;;8.86;42.57;101294.88;30794504;28;20130;-81
2021/10/19 16:10:18;;;;;;;4.33;2.57;;;;;;;8.70;42.62;101302.50;30783624;28;20069;-81
2021/10/19 16:25:21;;;;;;;5.10;2.90;;;;;;;8.50;42.50;101315.50;30779931;28;20082;-82
2021/10/19 16:40:22;;;;;;;6.70;3.83;;;;;;;8.29;42.94;101336.91;30805425;28;20133;-81
2021/10/19 16:55:25;;;;;;;10.37;5.07;;;;;;;8.26;43.15;101343.88;30781270;28;20484;-81
2021/10/19 17:10:27;;;;;;;8.87;4.07;;;;;;;8.27;43.19;101345.41;30763808;28;20145;-81
2021/10/19 17:25:28;;;;;;;6.67;3.77;;;;;;;8.15;44.03;101353.81;30763885;28;20154;-77
2021/10/19 17:40:33;;;;;;;12.57;5.80;;;;;;;8.00;44.48;101352.09;30803195;28;20527;-84
2021/10/19 17:55:36;;;;;;;10.63;5.10;;;;;;;7.81;44.51;101361.91;30781641;28;20075;-84
2021/10/19 18:10:38;;;;;;;5.97;3.70;;;;;;;7.69;45.23;101364.88;30767113;28;20055;-78
2021/10/19 18:25:40;;;;;;;7.50;4.00;;;;;;;7.63;45.75;101382.56;30768305;28;20083;-83
2021/10/19 18:40:42;;;;;;;10.83;5.57;;;;;;;7.59;46.15;101379.03;30799937;28;20101;-81
2021/10/19 18:55:49;;;;;;;5.90;3.53;;;;;;;7.55;46.80;101399.84;30817844;28;20047;-83
2021/10/19 19:10:51;;;;;;;5.37;3.37;;;;;;;7.56;46.79;101404.06;30807824;28;20054;-85
2021/10/19 19:25:53;;;;;;;10.33;5.10;;;;;;;7.37;46.98;101423.91;30785554;28;20048;-84
2021/10/19 19:40:54;;;;;;;13.90;6.97;;;;;;;7.29;47.19;101426.88;30808649;28;20486;-81
2021/10/19 19:55:58;;;;;;;6.30;3.50;;;;;;;7.25;47.68;101436.84;30801158;28;20085;-83
2021/10/19 20:11:00;;;;;;;7.17;3.67;;;;;;;7.18;47.88;101438.28;30788313;28;20099;-81
2021/10/19 20:26:02;;;;;;;7.27;3.60;;;;;;;7.06;48.55;101441.19;30747364;28;20057;-81
2021/10/19 20:41:04;;;;;;;7.73;4.07;;;;;;;7.02;48.73;101443.06;30753805;28;20051;-83
2021/10/19 20:56:05;;;;;;;7.70;3.83;;;;;;;7.02;49.08;101451.16;30763603;28;20039;-80
2021/10/19 21:11:08;;;;;;;19.07;5.60;;;;;;;6.67;50.09;101450.53;30760025;28;20039;-84
2021/10/19 21:26:10;;;;;;;12.50;5.23;;;;;;;6.26;50.60;101457.47;30740990;28;20055;-83
2021/10/19 21:41:13;;;;;;;10.60;5.90;;;;;;;6.36;50.42;101452.31;30754090;28;20059;-83
2021/10/19 21:56:15;;;;;;;7.13;3.93;;;;;;;6.54;49.80;101459.94;30749392;28;20047;-84
2021/10/19 22:11:16;;;;;;;3.93;2.83;;;;;;;6.73;48.83;101446.41;30747783;28;20061;-82
2021/10/19 22:26:20;;;;;;;6.67;4.07;;;;;;;6.62;48.52;101458.91;30757191;28;20130;-83
2021/10/19 22:41:22;;;;;;;6.80;3.90;;;;;;;6.33;49.21;101447.63;30771650;28;20051;-83
2021/10/19 22:56:23;;;;;;;8.97;4.07;;;;;;;6.31;49.06;101455.28;30763640;28;20467;-84
2021/10/19 23:11:25;;;;;;;6.37;3.83;;;;;;;6.34;49.14;101461.88;30786475;28;20111;-84
2021/10/19 23:26:27;;;;;;;7.70;3.60;;;;;;;6.14;49.48;101453.03;30812102;28;20070;-82
2021/10/19 23:41:31;;;;;;;6.63;3.80;;;;;;;6.14;49.62;101453.03;30767630;28;20058;-83
2021/10/19 23:56:33;;;;;;;8.87;3.43;;;;;;;6.04;49.63;101450.88;30759787;28;20471;-84
